Nautilus — OUYX2 — position and weather

sailwx.info

Track history (hours):
 
Tides and Currents Weather Stations Pressure Air Temp Water Temp Dewpoint Dewpoint Depression Visibility Wind Speed Wind Dir Waves Ship Positions

Nautilus

Last reported at 2014-Dec-18 06:33 UTC. Time now 2014-Dec-18 07:27 UTC.
Position N 51°16' E 004°21'.

Length 120 m; draft 7 m.

Type: Ship. MMSI: 219425000.

Date/timePositionNaut miles runAvg speedWind from/ knotsBaromVisibWave heightAir tempDewpointWater temp
2014-Dec-18 06:33N 51°16' E 004°21'0 0.0
2014-Dec-18 05:33N 51°16' E 004°21'0 0.0
2014-Dec-18 04:33N 51°16' E 004°21'0 0.0
2014-Dec-18 03:33N 51°16' E 004°21'0 0.0
2014-Dec-18 02:33N 51°16' E 004°21'0 0.0
2014-Dec-18 01:33N 51°16' E 004°21'0 0.0
2014-Dec-18 00:33N 51°16' E 004°21'0 0.0
2014-Dec-17 23:33N 51°16' E 004°21'0 0.0
2014-Dec-17 22:33N 51°16' E 004°21'0 0.0
2014-Dec-17 21:33N 51°16' E 004°21'4 3.5
2014-Dec-17 20:33N 51°19' E 004°19'2 1.9
2014-Dec-17 19:33N 51°21' E 004°17'1 1.4
2014-Dec-17 18:34N 51°21' E 004°15'1111.0
2014-Dec-17 17:34N 51°26' E 003°59'1010.4
2014-Dec-17 16:33N 51°22' E 003°44'1211.8
2014-Dec-17 15:33N 51°30' E 003°29'1313.1
2014-Dec-17 14:34N 51°41' E 003°17'5 4.5
2014-Dec-17 13:33N 51°44' E 003°13'1411.9
2014-Dec-17 12:25N 51°57' E 003°19'2211.3
2014-Dec-17 10:30N 52°19' E 003°25'3010.0
2014-Dec-17 07:28N 52°47' E 003°44'8 8.9
2014-Dec-17 06:33N 52°53' E 003°52'10 9.5
2014-Dec-17 05:33N 52°60' E 004°03'1010.5
2014-Dec-17 04:33N 53°06' E 004°17'1310.4
2014-Dec-17 03:20N 53°17' E 004°29'810.3
2014-Dec-17 02:33N 53°24' E 004°34'9 9.3
2014-Dec-17 01:33N 53°30' E 004°45'1010.1
2014-Dec-17 00:34N 53°34' E 005°01'1010.2
2014-Dec-16 23:34N 53°37' E 005°18'1110.8
2014-Dec-16 22:33N 53°40' E 005°35'1111.3
2014-Dec-16 21:34N 53°44' E 005°53'1211.1
2014-Dec-16 20:31N 53°48' E 006°11'47 9.5
2014-Dec-16 15:34N 53°60' E 007°29'8 7.8
2014-Dec-16 14:33N 54°02' E 007°42'8 7.6
2014-Dec-16 13:33N 54°01' E 007°55'10 9.8
2014-Dec-16 12:34N 54°01' E 008°11'1212.2
2014-Dec-16 11:34N 53°58' E 008°31'1414.2
2014-Dec-16 10:33N 53°50' E 008°51'1212.2
2014-Dec-16 09:33N 53°53' E 009°12'1211.7
2014-Dec-16 08:34N 53°45' E 009°25'1211.7
2014-Dec-16 07:33N 53°35' E 009°37'1010.4
2014-Dec-16 06:33N 53°33' E 009°54'4 4.1
2014-Dec-16 05:33N 53°30' E 009°59'0 0.0
2014-Dec-16 04:05N 53°30' E 009°59'0 0.0
2014-Dec-16 03:32N 53°30' E 009°59'0 0.0
2014-Dec-16 02:14N 53°30' E 009°59'0 0.0
2014-Dec-16 01:05N 53°30' E 009°59'0 0.0
2014-Dec-15 23:20N 53°30' E 009°59'0 0.0
2014-Dec-15 22:32N 53°30' E 009°59'0 0.0
2014-Dec-15 21:32N 53°30' E 009°59'0 0.0
2014-Dec-15 20:32N 53°30' E 009°59'0 0.0
2014-Dec-15 19:32N 53°30' E 009°59'0 0.0
2014-Dec-15 18:32N 53°30' E 009°59'0 0.0
2014-Dec-15 17:32N 53°30' E 009°59'0 0.0
2014-Dec-15 16:32N 53°30' E 009°59'0 0.3
2014-Dec-15 15:34N 53°30' E 009°59'7 6.6
2014-Dec-15 14:33N 53°33' E 009°49'1211.6
2014-Dec-15 13:33N 53°38' E 009°31'1111.1
2014-Dec-15 12:33N 53°48' E 009°22'10 9.9
2014-Dec-15 11:33N 53°53' E 009°08'1 0.8
2014-Dec-15 10:33N 53°54' E 009°09'5 4.6
2014-Dec-15 09:33N 53°57' E 009°14'8 8.4
2014-Dec-15 08:34N 54°05' E 009°19'8 7.6
2014-Dec-15 07:32N 54°11' E 009°28'8 7.5
2014-Dec-15 06:29N 54°16' E 009°38'6 6.1
2014-Dec-15 05:32N 54°20' E 009°45'8 7.9
2014-Dec-15 04:33N 54°21' E 009°58'6 6.4
2014-Dec-15 03:33N 54°22' E 010°08'2 1.5
2014-Dec-15 02:33N 54°23' E 010°11'7 7.3
2014-Dec-15 01:33N 54°29' E 010°16'8 7.6
2014-Dec-15 00:33N 54°33' E 010°28'12710.2
2014-Dec-14 12:07N 56°34' E 011°40'610.6
2014-Dec-14 11:33N 56°39' E 011°45'1010.2
2014-Dec-14 10:33N 56°49' E 011°49'1211.6
2014-Dec-14 09:33N 56°60' E 011°42'1111.4
2014-Dec-14 08:33N 57°10' E 011°35'1111.4
2014-Dec-14 07:33N 57°21' E 011°28'1110.9
2014-Dec-14 06:33N 57°31' E 011°36'1010.3
2014-Dec-14 05:33N 57°40' E 011°46'4 3.8
2014-Dec-14 04:33N 57°41' E 011°53'0 0.0
2014-Dec-14 03:32N 57°41' E 011°53'0 0.0
2014-Dec-14 02:32N 57°41' E 011°53'0 0.0
2014-Dec-14 01:32N 57°41' E 011°53'0 0.0
2014-Dec-14 00:29N 57°41' E 011°53'0 0.0
2014-Dec-13 23:32N 57°41' E 011°53'0 0.0
2014-Dec-13 22:32N 57°41' E 011°53'0 0.0
2014-Dec-13 21:32N 57°41' E 011°53'0 0.0
2014-Dec-13 20:32N 57°41' E 011°53'0 0.0
2014-Dec-13 19:32N 57°41' E 011°53'0 0.0
2014-Dec-13 18:32N 57°41' E 011°53'0 0.0
2014-Dec-13 17:32N 57°41' E 011°53'0 0.0
2014-Dec-13 16:32N 57°41' E 011°53'0 0.0
2014-Dec-13 15:32N 57°41' E 011°53'0 0.0
2014-Dec-13 14:32N 57°41' E 011°53'0 0.0
2014-Dec-13 13:32N 57°41' E 011°53'0 0.0
2014-Dec-13 12:32N 57°41' E 011°53'0 0.0
2014-Dec-13 11:32N 57°41' E 011°53'0 0.0
2014-Dec-13 10:29N 57°41' E 011°53'0 0.0
2014-Dec-13 09:32N 57°41' E 011°53'0 0.0
2014-Dec-13 08:32N 57°41' E 011°53'0 0.0
2014-Dec-13 07:32N 57°41' E 011°53'0 0.0
2014-Dec-13 06:32N 57°41' E 011°53'0 0.0
2014-Dec-13 05:32N 57°41' E 011°53'0 0.0
2014-Dec-13 04:32N 57°41' E 011°53'0 0.0
2014-Dec-13 03:32N 57°41' E 011°53'0 0.0
2014-Dec-13 02:32N 57°41' E 011°53'0 0.0
2014-Dec-13 01:32N 57°41' E 011°53'0 0.0
2014-Dec-13 00:32N 57°41' E 011°53'0 0.0
2014-Dec-12 23:29N 57°41' E 011°53'0 0.0
2014-Dec-12 22:29N 57°41' E 011°52'0 0.0
2014-Dec-12 21:32N 57°41' E 011°52'0 0.0
2014-Dec-12 20:32N 57°41' E 011°52'0 0.0
2014-Dec-12 19:32N 57°41' E 011°52'0 0.0
2014-Dec-12 18:32N 57°41' E 011°52'0 0.0
2014-Dec-12 17:32N 57°41' E 011°52'0 0.0
2014-Dec-12 16:32N 57°41' E 011°52'0 0.0
2014-Dec-12 15:32N 57°41' E 011°52'0 0.0
2014-Dec-12 14:32N 57°41' E 011°52'0 0.0
2014-Dec-12 13:32N 57°41' E 011°52'0 0.0
2014-Dec-12 12:32N 57°41' E 011°52'0 0.0
2014-Dec-12 11:32N 57°41' E 011°52'0 0.0
2014-Dec-12 10:32N 57°42' E 011°52'0 0.0
2014-Dec-12 09:32N 57°41' E 011°52'0 0.0
2014-Dec-12 08:32N 57°42' E 011°52'1 0.7
2014-Dec-12 07:34N 57°41' E 011°51'1010.3
2014-Dec-12 06:33N 57°37' E 011°34'1312.7
2014-Dec-12 05:33N 57°42' E 011°12'1313.2
2014-Dec-12 04:33N 57°47' E 010°49'1514.2
2014-Dec-12 03:32N 57°46' E 010°22'3315.4
2014-Dec-12 01:23N 57°33' E 009°26'5915.0
2014-Dec-11 21:28N 56°54' E 008°02'1415.2
2014-Dec-11 20:31N 56°42' E 007°49'3414.7
2014-Dec-11 18:14N 56°13' E 007°17'1014.0
2014-Dec-11 17:32N 56°05' E 007°08'1414.3
2014-Dec-11 16:31N 55°52' E 006°55'1313.7
2014-Dec-11 15:33N 55°41' E 006°43'1413.6
2014-Dec-11 14:32N 55°29' E 006°30'1413.8
2014-Dec-11 13:32N 55°17' E 006°17'1313.0
2014-Dec-11 12:33N 55°06' E 006°07'5813.0
2014-Dec-11 08:04N 54°17' E 005°14'610.5
2014-Dec-11 07:33N 54°12' E 005°11'1313.2
2014-Dec-11 06:33N 54°01' E 004°58'1312.5
2014-Dec-11 05:33N 53°49' E 004°54'1312.7
2014-Dec-11 04:32N 53°36' E 004°50'1212.8
2014-Dec-11 03:33N 53°25' E 004°41'1412.8
2014-Dec-11 02:26N 53°12' E 004°31'1112.5
2014-Dec-11 01:34N 53°02' E 004°24'1212.3
2014-Dec-11 00:33N 52°50' E 004°16'1312.6
2014-Dec-10 23:33N 52°41' E 004°02'1312.6
2014-Dec-10 22:34N 52°32' E 003°47'1312.3
2014-Dec-10 21:32N 52°22' E 003°36'1312.8
2014-Dec-10 20:33N 52°10' E 003°28'1313.3
2014-Dec-10 19:34N 51°57' E 003°22'1413.6
2014-Dec-10 18:33N 51°44' E 003°17'1313.4
2014-Dec-10 17:33N 51°32' E 003°25'1111.1
2014-Dec-10 16:33N 51°27' E 003°42'1 1.0
2014-Dec-10 15:31N 51°27' E 003°43'0 0.0
2014-Dec-10 14:31N 51°27' E 003°43'0 0.0
2014-Dec-10 13:31N 51°27' E 003°43'0 0.0
2014-Dec-10 12:31N 51°27' E 003°43'0 0.0
2014-Dec-10 11:31N 51°27' E 003°43'0 0.0
2014-Dec-10 10:31N 51°27' E 003°43'0 0.0
2014-Dec-10 09:31N 51°27' E 003°43'0 0.1
2014-Dec-10 08:33N 51°27' E 003°43'0 0.1
2014-Dec-10 07:33N 51°27' E 003°43'5 4.7
2014-Dec-10 06:34N 51°25' E 003°37'0 0.1
2014-Dec-10 05:32N 51°25' E 003°37'0 0.1
2014-Dec-10 04:32N 51°25' E 003°37'0 0.0
2014-Dec-10 03:29N 51°25' E 003°37'0 0.1
2014-Dec-10 02:29N 51°25' E 003°37'0 0.0
2014-Dec-10 01:32N 51°25' E 003°37'4 4.5
2014-Dec-10 00:33N 51°27' E 003°31'1111.4
2014-Dec-09 23:33N 51°37' E 003°21'8 8.3
2014-Dec-09 22:33N 51°45' E 003°17'2 1.9
2014-Dec-09 21:29N 51°47' E 003°18'0 0.0
2014-Dec-09 20:32N 51°47' E 003°18'0 0.0
2014-Dec-09 19:32N 51°47' E 003°18'0 0.0
2014-Dec-09 18:29N 51°47' E 003°18'0 0.0
2014-Dec-09 17:32N 51°47' E 003°18'0 0.0
2014-Dec-09 16:29N 51°47' E 003°18'2 1.7
2014-Dec-09 15:33N 51°48' E 003°18'9 9.3
2014-Dec-09 14:33N 51°58' E 003°19'4911.6
2014-Dec-09 10:20N 52°45' E 003°42'1012.7
2014-Dec-09 09:33N 52°52' E 003°52'1212.0
2014-Dec-09 08:33N 53°00' E 004°07'1311.0
2014-Dec-09 07:24N 53°09' E 004°23'1110.6
2014-Dec-09 06:19N 53°19' E 004°30'810.6
2014-Dec-09 05:33N 53°27' E 004°34'1411.3
2014-Dec-09 04:21N 53°40' E 004°42'1012.0
2014-Dec-09 03:33N 53°49' E 004°48'1212.0
2014-Dec-09 02:31N 54°00' E 004°56'1111.3
2014-Dec-09 01:33N 54°11' E 005°03'1411.8
2014-Dec-09 00:22N 54°22' E 005°17'6711.0
2014-Dec-08 18:19N 55°19' E 006°17'810.9
2014-Dec-08 17:33N 55°26' E 006°25'10810.6
2014-Dec-08 07:19N 56°59' E 008°03'  
Track history (hours):
 
Tides and Currents Weather Stations Pressure Air Temp Water Temp Dewpoint Dewpoint Depression Visibility Wind Speed Wind Dir Waves Ship Positions

Nautilus

Last reported at 2014-Dec-18 06:33 UTC. Time now 2014-Dec-18 07:27 UTC.
Position N 51°16' E 004°21'.

Length 120 m; draft 7 m.

Type: Ship. MMSI: 219425000.

Date/timePositionNaut miles runAvg speedWind from/ knotsBaromVisibWave heightAir tempDewpointWater temp
2014-Dec-18 06:33N 51°16' E 004°21'0 0.0
2014-Dec-18 05:33N 51°16' E 004°21'0 0.0
2014-Dec-18 04:33N 51°16' E 004°21'0 0.0
2014-Dec-18 03:33N 51°16' E 004°21'0 0.0
2014-Dec-18 02:33N 51°16' E 004°21'0 0.0
2014-Dec-18 01:33N 51°16' E 004°21'0 0.0
2014-Dec-18 00:33N 51°16' E 004°21'0 0.0
2014-Dec-17 23:33N 51°16' E 004°21'0 0.0
2014-Dec-17 22:33N 51°16' E 004°21'0 0.0
2014-Dec-17 21:33N 51°16' E 004°21'4 3.5
2014-Dec-17 20:33N 51°19' E 004°19'2 1.9
2014-Dec-17 19:33N 51°21' E 004°17'1 1.4
2014-Dec-17 18:34N 51°21' E 004°15'1111.0
2014-Dec-17 17:34N 51°26' E 003°59'1010.4
2014-Dec-17 16:33N 51°22' E 003°44'1211.8
2014-Dec-17 15:33N 51°30' E 003°29'1313.1
2014-Dec-17 14:34N 51°41' E 003°17'5 4.5
2014-Dec-17 13:33N 51°44' E 003°13'1411.9
2014-Dec-17 12:25N 51°57' E 003°19'2211.3
2014-Dec-17 10:30N 52°19' E 003°25'3010.0
2014-Dec-17 07:28N 52°47' E 003°44'8 8.9
2014-Dec-17 06:33N 52°53' E 003°52'10 9.5
2014-Dec-17 05:33N 52°60' E 004°03'1010.5
2014-Dec-17 04:33N 53°06' E 004°17'1310.4
2014-Dec-17 03:20N 53°17' E 004°29'810.3
2014-Dec-17 02:33N 53°24' E 004°34'9 9.3
2014-Dec-17 01:33N 53°30' E 004°45'1010.1
2014-Dec-17 00:34N 53°34' E 005°01'1010.2
2014-Dec-16 23:34N 53°37' E 005°18'1110.8
2014-Dec-16 22:33N 53°40' E 005°35'1111.3
2014-Dec-16 21:34N 53°44' E 005°53'1211.1
2014-Dec-16 20:31N 53°48' E 006°11'47 9.5
2014-Dec-16 15:34N 53°60' E 007°29'8 7.8
2014-Dec-16 14:33N 54°02' E 007°42'8 7.6
2014-Dec-16 13:33N 54°01' E 007°55'10 9.8
2014-Dec-16 12:34N 54°01' E 008°11'1212.2
2014-Dec-16 11:34N 53°58' E 008°31'1414.2
2014-Dec-16 10:33N 53°50' E 008°51'1212.2
2014-Dec-16 09:33N 53°53' E 009°12'1211.7
2014-Dec-16 08:34N 53°45' E 009°25'1211.7
2014-Dec-16 07:33N 53°35' E 009°37'1010.4
2014-Dec-16 06:33N 53°33' E 009°54'4 4.1
2014-Dec-16 05:33N 53°30' E 009°59'0 0.0
2014-Dec-16 04:05N 53°30' E 009°59'0 0.0
2014-Dec-16 03:32N 53°30' E 009°59'0 0.0
2014-Dec-16 02:14N 53°30' E 009°59'0 0.0
2014-Dec-16 01:05N 53°30' E 009°59'0 0.0
2014-Dec-15 23:20N 53°30' E 009°59'0 0.0
2014-Dec-15 22:32N 53°30' E 009°59'0 0.0
2014-Dec-15 21:32N 53°30' E 009°59'0 0.0
2014-Dec-15 20:32N 53°30' E 009°59'0 0.0
2014-Dec-15 19:32N 53°30' E 009°59'0 0.0
2014-Dec-15 18:32N 53°30' E 009°59'0 0.0
2014-Dec-15 17:32N 53°30' E 009°59'0 0.0
2014-Dec-15 16:32N 53°30' E 009°59'0 0.3
2014-Dec-15 15:34N 53°30' E 009°59'7 6.6
2014-Dec-15 14:33N 53°33' E 009°49'1211.6
2014-Dec-15 13:33N 53°38' E 009°31'1111.1
2014-Dec-15 12:33N 53°48' E 009°22'10 9.9
2014-Dec-15 11:33N 53°53' E 009°08'1 0.8
2014-Dec-15 10:33N 53°54' E 009°09'5 4.6
2014-Dec-15 09:33N 53°57' E 009°14'8 8.4
2014-Dec-15 08:34N 54°05' E 009°19'8 7.6
2014-Dec-15 07:32N 54°11' E 009°28'8 7.5
2014-Dec-15 06:29N 54°16' E 009°38'6 6.1
2014-Dec-15 05:32N 54°20' E 009°45'8 7.9
2014-Dec-15 04:33N 54°21' E 009°58'6 6.4
2014-Dec-15 03:33N 54°22' E 010°08'2 1.5
2014-Dec-15 02:33N 54°23' E 010°11'7 7.3
2014-Dec-15 01:33N 54°29' E 010°16'8 7.6
2014-Dec-15 00:33N 54°33' E 010°28'12710.2
2014-Dec-14 12:07N 56°34' E 011°40'610.6
2014-Dec-14 11:33N 56°39' E 011°45'1010.2
2014-Dec-14 10:33N 56°49' E 011°49'1211.6
2014-Dec-14 09:33N 56°60' E 011°42'1111.4
2014-Dec-14 08:33N 57°10' E 011°35'1111.4
2014-Dec-14 07:33N 57°21' E 011°28'1110.9
2014-Dec-14 06:33N 57°31' E 011°36'1010.3
2014-Dec-14 05:33N 57°40' E 011°46'4 3.8
2014-Dec-14 04:33N 57°41' E 011°53'0 0.0
2014-Dec-14 03:32N 57°41' E 011°53'0 0.0
2014-Dec-14 02:32N 57°41' E 011°53'0 0.0
2014-Dec-14 01:32N 57°41' E 011°53'0 0.0
2014-Dec-14 00:29N 57°41' E 011°53'0 0.0
2014-Dec-13 23:32N 57°41' E 011°53'0 0.0
2014-Dec-13 22:32N 57°41' E 011°53'0 0.0
2014-Dec-13 21:32N 57°41' E 011°53'0 0.0
2014-Dec-13 20:32N 57°41' E 011°53'0 0.0
2014-Dec-13 19:32N 57°41' E 011°53'0 0.0
2014-Dec-13 18:32N 57°41' E 011°53'0 0.0
2014-Dec-13 17:32N 57°41' E 011°53'0 0.0
2014-Dec-13 16:32N 57°41' E 011°53'0 0.0
2014-Dec-13 15:32N 57°41' E 011°53'0 0.0
2014-Dec-13 14:32N 57°41' E 011°53'0 0.0
2014-Dec-13 13:32N 57°41' E 011°53'0 0.0
2014-Dec-13 12:32N 57°41' E 011°53'0 0.0
2014-Dec-13 11:32N 57°41' E 011°53'0 0.0
2014-Dec-13 10:29N 57°41' E 011°53'0 0.0
2014-Dec-13 09:32N 57°41' E 011°53'0 0.0
2014-Dec-13 08:32N 57°41' E 011°53'0 0.0
2014-Dec-13 07:32N 57°41' E 011°53'0 0.0
2014-Dec-13 06:32N 57°41' E 011°53'0 0.0
2014-Dec-13 05:32N 57°41' E 011°53'0 0.0
2014-Dec-13 04:32N 57°41' E 011°53'0 0.0
2014-Dec-13 03:32N 57°41' E 011°53'0 0.0
2014-Dec-13 02:32N 57°41' E 011°53'0 0.0
2014-Dec-13 01:32N 57°41' E 011°53'0 0.0
2014-Dec-13 00:32N 57°41' E 011°53'0 0.0
2014-Dec-12 23:29N 57°41' E 011°53'0 0.0
2014-Dec-12 22:29N 57°41' E 011°52'0 0.0
2014-Dec-12 21:32N 57°41' E 011°52'0 0.0
2014-Dec-12 20:32N 57°41' E 011°52'0 0.0
2014-Dec-12 19:32N 57°41' E 011°52'0 0.0
2014-Dec-12 18:32N 57°41' E 011°52'0 0.0
2014-Dec-12 17:32N 57°41' E 011°52'0 0.0
2014-Dec-12 16:32N 57°41' E 011°52'0 0.0
2014-Dec-12 15:32N 57°41' E 011°52'0 0.0
2014-Dec-12 14:32N 57°41' E 011°52'0 0.0
2014-Dec-12 13:32N 57°41' E 011°52'0 0.0
2014-Dec-12 12:32N 57°41' E 011°52'0 0.0
2014-Dec-12 11:32N 57°41' E 011°52'0 0.0
2014-Dec-12 10:32N 57°42' E 011°52'0 0.0
2014-Dec-12 09:32N 57°41' E 011°52'0 0.0
2014-Dec-12 08:32N 57°42' E 011°52'1 0.7
2014-Dec-12 07:34N 57°41' E 011°51'1010.3
2014-Dec-12 06:33N 57°37' E 011°34'1312.7
2014-Dec-12 05:33N 57°42' E 011°12'1313.2
2014-Dec-12 04:33N 57°47' E 010°49'1514.2
2014-Dec-12 03:32N 57°46' E 010°22'3315.4
2014-Dec-12 01:23N 57°33' E 009°26'5915.0
2014-Dec-11 21:28N 56°54' E 008°02'1415.2
2014-Dec-11 20:31N 56°42' E 007°49'3414.7
2014-Dec-11 18:14N 56°13' E 007°17'1014.0
2014-Dec-11 17:32N 56°05' E 007°08'1414.3
2014-Dec-11 16:31N 55°52' E 006°55'1313.7
2014-Dec-11 15:33N 55°41' E 006°43'1413.6
2014-Dec-11 14:32N 55°29' E 006°30'1413.8
2014-Dec-11 13:32N 55°17' E 006°17'1313.0
2014-Dec-11 12:33N 55°06' E 006°07'5813.0
2014-Dec-11 08:04N 54°17' E 005°14'610.5
2014-Dec-11 07:33N 54°12' E 005°11'1313.2
2014-Dec-11 06:33N 54°01' E 004°58'1312.5
2014-Dec-11 05:33N 53°49' E 004°54'1312.7
2014-Dec-11 04:32N 53°36' E 004°50'1212.8
2014-Dec-11 03:33N 53°25' E 004°41'1412.8
2014-Dec-11 02:26N 53°12' E 004°31'1112.5
2014-Dec-11 01:34N 53°02' E 004°24'1212.3
2014-Dec-11 00:33N 52°50' E 004°16'1312.6
2014-Dec-10 23:33N 52°41' E 004°02'1312.6
2014-Dec-10 22:34N 52°32' E 003°47'1312.3
2014-Dec-10 21:32N 52°22' E 003°36'1312.8
2014-Dec-10 20:33N 52°10' E 003°28'1313.3
2014-Dec-10 19:34N 51°57' E 003°22'1413.6
2014-Dec-10 18:33N 51°44' E 003°17'1313.4
2014-Dec-10 17:33N 51°32' E 003°25'1111.1
2014-Dec-10 16:33N 51°27' E 003°42'1 1.0
2014-Dec-10 15:31N 51°27' E 003°43'0 0.0
2014-Dec-10 14:31N 51°27' E 003°43'0 0.0
2014-Dec-10 13:31N 51°27' E 003°43'0 0.0
2014-Dec-10 12:31N 51°27' E 003°43'0 0.0
2014-Dec-10 11:31N 51°27' E 003°43'0 0.0
2014-Dec-10 10:31N 51°27' E 003°43'0 0.0
2014-Dec-10 09:31N 51°27' E 003°43'0 0.1
2014-Dec-10 08:33N 51°27' E 003°43'0 0.1
2014-Dec-10 07:33N 51°27' E 003°43'5 4.7
2014-Dec-10 06:34N 51°25' E 003°37'0 0.1
2014-Dec-10 05:32N 51°25' E 003°37'0 0.1
2014-Dec-10 04:32N 51°25' E 003°37'0 0.0
2014-Dec-10 03:29N 51°25' E 003°37'0 0.1
2014-Dec-10 02:29N 51°25' E 003°37'0 0.0
2014-Dec-10 01:32N 51°25' E 003°37'4 4.5
2014-Dec-10 00:33N 51°27' E 003°31'1111.4
2014-Dec-09 23:33N 51°37' E 003°21'8 8.3
2014-Dec-09 22:33N 51°45' E 003°17'2 1.9
2014-Dec-09 21:29N 51°47' E 003°18'0 0.0
2014-Dec-09 20:32N 51°47' E 003°18'0 0.0
2014-Dec-09 19:32N 51°47' E 003°18'0 0.0
2014-Dec-09 18:29N 51°47' E 003°18'0 0.0
2014-Dec-09 17:32N 51°47' E 003°18'0 0.0
2014-Dec-09 16:29N 51°47' E 003°18'2 1.7
2014-Dec-09 15:33N 51°48' E 003°18'9 9.3
2014-Dec-09 14:33N 51°58' E 003°19'4911.6
2014-Dec-09 10:20N 52°45' E 003°42'1012.7
2014-Dec-09 09:33N 52°52' E 003°52'1212.0
2014-Dec-09 08:33N 53°00' E 004°07'1311.0
2014-Dec-09 07:24N 53°09' E 004°23'1110.6
2014-Dec-09 06:19N 53°19' E 004°30'810.6
2014-Dec-09 05:33N 53°27' E 004°34'1411.3
2014-Dec-09 04:21N 53°40' E 004°42'1012.0
2014-Dec-09 03:33N 53°49' E 004°48'1212.0
2014-Dec-09 02:31N 54°00' E 004°56'1111.3
2014-Dec-09 01:33N 54°11' E 005°03'1411.8
2014-Dec-09 00:22N 54°22' E 005°17'6711.0
2014-Dec-08 18:19N 55°19' E 006°17'810.9
2014-Dec-08 17:33N 55°26' E 006°25'10810.6
2014-Dec-08 07:19N 56°59' E 008°03'  

Dump ship's entire track history